createdAt,value
2022-07-29T00:00:02.530Z,44.01
2022-07-29T00:03:07.397Z,44.08
2022-07-29T00:06:10.545Z,44.45
2022-07-29T00:09:13.750Z,44.13
2022-07-29T00:12:16.962Z,44.07
2022-07-29T00:15:28.465Z,44.29
2022-07-29T00:18:33.254Z,44.01
2022-07-29T00:21:36.419Z,43.65
2022-07-29T00:24:39.495Z,43.41
2022-07-29T00:27:42.611Z,43.09
2022-07-29T00:30:45.688Z,43.08
2022-07-29T00:33:50.123Z,43.53
2022-07-29T00:36:52.170Z,43.87
2022-07-29T00:39:55.249Z,44.05
2022-07-29T00:42:58.343Z,44.04
2022-07-29T00:46:02.776Z,44.32
2022-07-29T00:49:08.516Z,44.36
2022-07-29T00:52:12.690Z,44.05
2022-07-29T00:55:20.086Z,44.00
2022-07-29T00:58:23.537Z,44.66
2022-07-29T01:01:26.701Z,44.60
2022-07-29T01:04:31.939Z,44.59
2022-07-29T01:07:37.116Z,43.68
2022-07-29T01:10:42.095Z,43.87
2022-07-29T01:13:45.924Z,43.30
2022-07-29T01:16:55.483Z,43.79
2022-07-29T01:20:06.066Z,43.32
2022-07-29T01:23:47.601Z,44.25
2022-07-29T01:26:54.595Z,43.48
2022-07-29T01:30:01.989Z,44.08
2022-07-29T01:33:39.085Z,44.75
2022-07-29T01:36:52.916Z,44.50
2022-07-29T01:39:59.475Z,44.28
2022-07-29T01:43:10.097Z,44.26
2022-07-29T01:46:20.536Z,45.15
2022-07-29T01:49:29.392Z,44.52
2022-07-29T01:52:38.713Z,44.13
2022-07-29T01:55:46.930Z,44.59
2022-07-29T01:58:51.733Z,43.62
2022-07-29T02:02:00.630Z,43.65
2022-07-29T02:05:06.117Z,44.09
2022-07-29T02:08:12.026Z,43.12
2022-07-29T02:11:15.431Z,43.83
2022-07-29T02:14:21.023Z,43.51
2022-07-29T02:17:29.485Z,43.37
2022-07-29T02:20:33.911Z,43.84
2022-07-29T02:23:45.250Z,44.32
2022-07-29T02:26:57.550Z,44.19
2022-07-29T02:30:02.929Z,44.01
2022-07-29T02:33:09.157Z,44.18
2022-07-29T02:36:13.203Z,44.60
2022-07-29T02:39:17.732Z,44.40
2022-07-29T02:42:21.807Z,43.97
2022-07-29T02:45:25.007Z,44.32
2022-07-29T02:48:37.007Z,43.58
2022-07-29T02:51:45.359Z,43.54
2022-07-29T02:54:54.206Z,44.68
2022-07-29T02:58:03.071Z,44.27
2022-07-29T03:01:20.999Z,43.97
2022-07-29T03:04:29.552Z,43.75
2022-07-29T03:07:34.031Z,44.00
2022-07-29T03:10:38.944Z,44.07
2022-07-29T03:13:42.432Z,44.16
2022-07-29T03:16:45.766Z,46.27
2022-07-29T03:19:50.716Z,46.54
2022-07-29T03:22:53.843Z,46.75
2022-07-29T03:25:57.389Z,46.91
2022-07-29T03:29:00.453Z,48.88
2022-07-29T03:32:07.883Z,47.11
2022-07-29T03:35:13.020Z,47.88
2022-07-29T03:38:16.076Z,47.90
2022-07-29T03:41:22.406Z,46.58
2022-07-29T03:44:28.023Z,46.98
2022-07-29T03:47:50.175Z,48.17
2022-07-29T03:50:56.258Z,49.58
2022-07-29T03:53:59.429Z,49.49
2022-07-29T03:57:04.113Z,48.09
2022-07-29T04:00:08.924Z,48.47
2022-07-29T04:03:12.573Z,49.00
2022-07-29T04:06:20.445Z,49.27
2022-07-29T04:09:23.602Z,50.73
2022-07-29T04:12:26.745Z,48.69
2022-07-29T04:15:31.238Z,50.43
2022-07-29T04:18:34.941Z,47.53
2022-07-29T04:21:40.989Z,48.74
2022-07-29T04:24:44.606Z,48.33
2022-07-29T04:31:16.498Z,48.58
2022-07-29T04:34:20.221Z,48.98
2022-07-29T04:37:23.502Z,47.18
2022-07-29T04:40:26.796Z,48.29
2022-07-29T04:43:30.039Z,48.26
2022-07-29T04:46:41.550Z,48.70
2022-07-29T04:49:45.038Z,48.22
2022-07-29T04:52:48.189Z,47.83
2022-07-29T04:55:51.319Z,47.62
2022-07-29T04:58:54.761Z,48.91
2022-07-29T05:01:59.310Z,49.03
2022-07-29T05:05:02.439Z,48.20
2022-07-29T05:08:05.924Z,48.45
2022-07-29T05:11:11.686Z,49.23
2022-07-29T05:14:16.326Z,49.00
2022-07-29T05:17:21.131Z,49.58
2022-07-29T05:20:29.203Z,49.71
2022-07-29T05:23:32.289Z,49.34
2022-07-29T05:26:35.316Z,49.40
2022-07-29T05:29:44.438Z,50.55
2022-07-29T05:32:50.415Z,50.41
2022-07-29T05:35:57.270Z,49.82
2022-07-29T05:39:03.637Z,49.90
2022-07-29T05:42:10.666Z,48.76
2022-07-29T05:45:13.848Z,49.74
2022-07-29T05:48:18.315Z,49.08
2022-07-29T05:51:21.617Z,49.07
2022-07-29T05:54:24.685Z,48.81
2022-07-29T05:57:27.782Z,47.96
2022-07-29T06:00:31.232Z,48.60
2022-07-29T06:03:35.729Z,48.32
2022-07-29T06:06:38.772Z,47.80
2022-07-29T06:09:41.933Z,47.50
2022-07-29T06:12:45.009Z,48.66
2022-07-29T06:15:48.075Z,47.96
2022-07-29T06:18:53.205Z,47.51
2022-07-29T06:21:56.367Z,48.11
2022-07-29T06:24:59.377Z,47.75
2022-07-29T06:28:02.786Z,48.43
2022-07-29T06:31:05.959Z,48.84
2022-07-29T06:34:13.813Z,48.52
2022-07-29T06:37:18.675Z,48.81
2022-07-29T06:40:40.016Z,48.30
2022-07-29T06:43:52.524Z,47.71
2022-07-29T06:46:57.857Z,47.50
2022-07-29T06:50:02.341Z,47.21
2022-07-29T06:53:10.778Z,47.24
2022-07-29T06:56:14.997Z,46.41
2022-07-29T06:59:18.050Z,46.18
2022-07-29T07:02:21.299Z,45.02
2022-07-29T07:05:25.806Z,45.80
2022-07-29T07:08:29.070Z,44.72
2022-07-29T07:11:32.244Z,45.76
2022-07-29T07:14:35.327Z,45.64
2022-07-29T07:17:38.745Z,45.21
2022-07-29T07:20:43.382Z,46.93
2022-07-29T07:23:46.480Z,44.41
2022-07-29T07:26:49.824Z,44.99
2022-07-29T07:29:52.896Z,44.90
2022-07-29T07:32:56.370Z,45.15
2022-07-29T07:36:00.917Z,46.06
2022-07-29T07:39:04.688Z,45.09
2022-07-29T07:42:07.959Z,44.58
2022-07-29T07:45:13.914Z,44.40
2022-07-29T07:48:19.710Z,44.14
2022-07-29T07:51:24.168Z,44.21
2022-07-29T07:54:27.345Z,44.86
2022-07-29T07:57:30.433Z,43.43
2022-07-29T08:00:33.735Z,42.00
2022-07-29T08:03:37.111Z,41.40
2022-07-29T08:06:41.579Z,42.47
2022-07-29T08:09:44.586Z,43.75
2022-07-29T08:12:47.683Z,42.35
2022-07-29T08:15:58.728Z,43.98
2022-07-29T08:19:02.171Z,42.85
2022-07-29T08:22:14.135Z,43.00
2022-07-29T08:25:18.979Z,42.06
2022-07-29T08:28:25.748Z,42.59
2022-07-29T08:31:29.193Z,41.18
2022-07-29T08:34:33.016Z,39.64
2022-07-29T08:37:37.519Z,40.21
2022-07-29T08:40:41.474Z,39.96
2022-07-29T08:43:44.590Z,39.37
2022-07-29T08:46:48.159Z,39.89
2022-07-29T08:49:51.295Z,40.15
2022-07-29T08:52:59.747Z,39.89
2022-07-29T08:56:04.195Z,39.90
2022-07-29T08:59:08.031Z,39.82
2022-07-29T09:02:22.930Z,39.84
2022-07-29T09:05:26.544Z,39.49
2022-07-29T09:08:32.786Z,40.33
2022-07-29T09:11:36.406Z,40.86
2022-07-29T09:14:39.696Z,41.19
2022-07-29T09:17:43.812Z,41.76
2022-07-29T09:21:11.802Z,41.17
2022-07-29T09:24:16.932Z,41.90
2022-07-29T09:27:26.972Z,41.19
2022-07-29T09:30:31.842Z,41.82
2022-07-29T09:33:40.401Z,42.33
2022-07-29T09:36:44.602Z,42.38
2022-07-29T09:39:49.215Z,42.05
2022-07-29T09:42:53.921Z,42.25
2022-07-29T09:45:57.227Z,41.64
2022-07-29T09:49:11.196Z,41.72
2022-07-29T09:52:14.359Z,41.92
2022-07-29T09:55:20.158Z,41.56
2022-07-29T09:58:24.405Z,41.80
2022-07-29T10:01:30.405Z,41.13
2022-07-29T10:04:41.437Z,40.66
2022-07-29T10:07:53.678Z,40.52
2022-07-29T10:11:12.362Z,40.80
2022-07-29T10:14:16.626Z,40.84
2022-07-29T10:17:20.791Z,40.89
2022-07-29T10:20:24.820Z,41.23
2022-07-29T10:23:28.614Z,40.15
2022-07-29T10:26:33.442Z,39.58
2022-07-29T10:29:37.217Z,38.76
2022-07-29T10:33:01.218Z,39.16
2022-07-29T10:36:24.499Z,37.84
2022-07-29T10:39:45.190Z,37.16
2022-07-29T10:42:55.968Z,36.41
2022-07-29T10:46:02.827Z,36.95
2022-07-29T10:49:15.748Z,38.38
2022-07-29T10:52:20.600Z,39.33
2022-07-29T10:55:35.727Z,40.03
2022-07-29T10:58:41.027Z,40.11
2022-07-29T11:01:46.416Z,40.86
2022-07-29T11:05:04.357Z,40.92
2022-07-29T11:08:28.058Z,41.83
2022-07-29T11:11:36.741Z,42.22
2022-07-29T11:15:00.314Z,42.19
2022-07-29T11:18:14.942Z,42.59
2022-07-29T11:21:55.162Z,42.28
2022-07-29T11:25:16.759Z,42.06
2022-07-29T11:28:25.489Z,42.00
2022-07-29T11:31:39.784Z,42.68
2022-07-29T11:34:43.171Z,42.29
2022-07-29T11:37:52.495Z,42.28
2022-07-29T11:41:22.068Z,42.60
2022-07-29T11:44:57.051Z,42.79
2022-07-29T11:48:28.864Z,42.64
2022-07-29T11:54:57.319Z,42.64
2022-07-29T11:58:04.139Z,43.39
2022-07-29T12:01:28.167Z,43.37
2022-07-29T12:04:32.772Z,43.63
2022-07-29T12:07:36.535Z,43.61
2022-07-29T12:10:40.009Z,43.73
2022-07-29T12:13:43.102Z,44.05
2022-07-29T12:16:46.435Z,42.95
2022-07-29T12:19:51.044Z,43.80
2022-07-29T12:22:55.571Z,43.52
2022-07-29T12:26:00.720Z,43.39
2022-07-29T12:29:08.504Z,43.59
2022-07-29T12:32:19.757Z,43.77
2022-07-29T12:35:25.569Z,43.03
2022-07-29T12:38:29.130Z,43.18
2022-07-29T12:41:32.651Z,43.63
2022-07-29T12:44:50.179Z,43.99
2022-07-29T12:47:54.290Z,43.81
2022-07-29T12:51:00.495Z,44.43
2022-07-29T12:54:11.442Z,43.67
2022-07-29T12:57:20.129Z,44.38
2022-07-29T13:00:26.025Z,44.88
2022-07-29T13:03:35.943Z,44.38
2022-07-29T13:06:45.691Z,45.08
2022-07-29T13:09:49.580Z,44.51
2022-07-29T13:13:10.644Z,43.81
2022-07-29T13:16:14.032Z,43.85
2022-07-29T13:19:17.257Z,43.88
2022-07-29T13:22:23.538Z,43.45
2022-07-29T13:25:28.703Z,43.36
2022-07-29T13:28:31.820Z,43.34
2022-07-29T13:31:34.993Z,43.44
2022-07-29T13:34:38.273Z,43.68
2022-07-29T13:37:42.851Z,43.79
2022-07-29T13:40:45.978Z,43.50
2022-07-29T13:43:50.130Z,44.12
2022-07-29T13:46:53.242Z,43.66
2022-07-29T13:49:56.374Z,44.01
2022-07-29T13:53:00.872Z,43.72
2022-07-29T13:56:04.099Z,43.58
2022-07-29T13:59:07.212Z,43.81
2022-07-29T14:02:11.526Z,43.74
2022-07-29T14:05:14.665Z,43.24
2022-07-29T14:08:19.207Z,39.58
2022-07-29T14:11:22.553Z,37.76
2022-07-29T14:14:25.709Z,36.80
2022-07-29T14:17:28.831Z,36.53
2022-07-29T14:20:32.028Z,37.46
2022-07-29T14:23:36.582Z,36.47
2022-07-29T14:26:39.679Z,36.23
2022-07-29T14:29:42.796Z,35.62
2022-07-29T14:32:45.897Z,35.45
2022-07-29T14:35:49.449Z,35.37
2022-07-29T14:38:53.888Z,34.97
2022-07-29T14:41:57.200Z,33.85
2022-07-29T14:45:01.427Z,34.43
2022-07-29T14:48:04.602Z,34.87
2022-07-29T14:51:07.720Z,33.74
2022-07-29T14:54:12.277Z,33.56
2022-07-29T14:57:15.457Z,35.70
2022-07-29T15:00:19.299Z,34.42
2022-07-29T15:03:24.203Z,33.56
2022-07-29T15:06:27.871Z,33.66
2022-07-29T15:09:32.528Z,34.24
2022-07-29T15:12:39.436Z,33.81
2022-07-29T15:15:42.924Z,33.73
2022-07-29T15:18:46.306Z,33.15
2022-07-29T15:21:49.390Z,34.18
2022-07-29T15:24:53.881Z,34.29
2022-07-29T15:28:01.151Z,33.96
2022-07-29T15:31:04.888Z,34.28
2022-07-29T15:34:07.940Z,34.39
2022-07-29T15:37:11.992Z,35.35
2022-07-29T15:40:16.701Z,34.95
2022-07-29T15:43:19.877Z,35.24
2022-07-29T15:46:40.382Z,35.35
2022-07-29T15:49:46.606Z,35.50
2022-07-29T15:52:52.389Z,35.10
2022-07-29T15:55:56.949Z,35.49
2022-07-29T15:59:00.328Z,35.25
2022-07-29T16:02:04.213Z,35.30
2022-07-29T16:05:09.265Z,35.27
2022-07-29T16:08:12.738Z,35.04
2022-07-29T16:11:17.287Z,35.54
2022-07-29T16:14:21.031Z,34.83
2022-07-29T16:17:25.590Z,35.21
2022-07-29T16:20:28.758Z,35.28
2022-07-29T16:23:32.308Z,35.51
2022-07-29T16:26:37.361Z,36.04
2022-07-29T16:29:40.547Z,35.88
2022-07-29T16:32:43.620Z,36.09
2022-07-29T16:35:46.778Z,35.79
2022-07-29T16:38:52.181Z,36.71
2022-07-29T16:42:00.013Z,36.92
2022-07-29T16:45:04.554Z,37.49
2022-07-29T16:48:08.659Z,37.41
2022-07-29T16:51:14.514Z,38.10
2022-07-29T16:54:17.836Z,37.44
2022-07-29T16:57:22.335Z,37.63
2022-07-29T17:00:25.427Z,37.20
2022-07-29T17:03:28.516Z,37.09
2022-07-29T17:06:32.736Z,37.64
2022-07-29T17:09:35.864Z,36.89
2022-07-29T17:12:41.712Z,37.04
2022-07-29T17:15:44.865Z,37.22
2022-07-29T17:18:48.215Z,36.67
2022-07-29T17:21:51.431Z,36.96
2022-07-29T17:24:55.001Z,36.72
2022-07-29T17:28:01.060Z,36.76
2022-07-29T17:31:04.528Z,36.76
2022-07-29T17:34:08.821Z,36.47
2022-07-29T17:37:13.145Z,36.51
2022-07-29T17:40:16.234Z,36.65
2022-07-29T17:43:20.719Z,37.27
2022-07-29T17:46:27.280Z,37.48
2022-07-29T17:49:30.503Z,37.24
2022-07-29T17:52:33.599Z,37.23
2022-07-29T17:55:36.760Z,37.16
2022-07-29T17:58:41.276Z,36.92
2022-07-29T18:01:44.442Z,36.38
2022-07-29T18:04:50.603Z,35.78
2022-07-29T18:07:55.826Z,35.63
2022-07-29T18:10:59.045Z,34.75
2022-07-29T18:14:03.530Z,35.01
2022-07-29T18:17:06.722Z,34.65
2022-07-29T18:20:10.892Z,35.32
2022-07-29T18:23:14.508Z,34.91
2022-07-29T18:26:17.884Z,35.42
2022-07-29T18:29:22.377Z,35.20
2022-07-29T18:32:28.832Z,35.42
2022-07-29T18:35:33.283Z,35.36
2022-07-29T18:38:36.377Z,35.05
2022-07-29T18:41:49.845Z,35.29
2022-07-29T18:44:54.885Z,35.05
2022-07-29T18:47:58.015Z,35.73
2022-07-29T18:51:01.168Z,34.95
2022-07-29T18:54:05.482Z,35.40
2022-07-29T18:57:54.117Z,35.57
2022-07-29T19:00:33.355Z,35.25
2022-07-29T19:03:36.611Z,35.39
2022-07-29T19:06:40.832Z,35.15
2022-07-29T19:09:49.147Z,35.16
2022-07-29T19:12:52.867Z,34.93
2022-07-29T19:15:57.437Z,34.15
2022-07-29T19:19:01.203Z,34.50
2022-07-29T19:22:04.288Z,35.06
2022-07-29T19:25:09.349Z,35.87
2022-07-29T19:28:12.411Z,36.09
2022-07-29T19:31:17.010Z,36.72
2022-07-29T19:34:20.165Z,36.57
2022-07-29T19:37:23.248Z,36.97
2022-07-29T19:40:27.183Z,35.92
2022-07-29T19:43:52.242Z,36.11
2022-07-29T19:46:54.977Z,36.66
2022-07-29T19:49:58.127Z,36.81
2022-07-29T19:53:01.883Z,36.69
2022-07-29T19:56:05.818Z,36.64
2022-07-29T19:59:11.992Z,36.76
2022-07-29T20:02:17.662Z,36.65
2022-07-29T20:05:20.816Z,36.60
2022-07-29T20:08:23.913Z,36.50
2022-07-29T20:11:29.726Z,36.58
2022-07-29T20:14:32.888Z,36.83
2022-07-29T20:17:39.772Z,36.94
2022-07-29T20:20:43.567Z,37.05
2022-07-29T20:23:47.025Z,36.43
2022-07-29T20:26:50.975Z,36.86
2022-07-29T20:29:54.151Z,37.48
2022-07-29T20:32:58.704Z,36.85
2022-07-29T20:36:01.900Z,37.74
2022-07-29T20:39:05.302Z,37.25
2022-07-29T20:42:08.556Z,37.62
2022-07-29T20:45:11.949Z,37.19
2022-07-29T20:48:16.445Z,37.01
2022-07-29T20:51:19.503Z,37.18
2022-07-29T20:54:22.541Z,37.16
2022-07-29T20:57:39.319Z,36.49
2022-07-29T21:00:42.981Z,36.35
2022-07-29T21:03:47.785Z,36.71
2022-07-29T21:06:50.859Z,36.49
2022-07-29T21:09:54.322Z,37.13
2022-07-29T21:12:57.502Z,36.81
2022-07-29T21:16:04.279Z,37.61
2022-07-29T21:19:10.864Z,37.23
2022-07-29T21:22:14.055Z,37.78
2022-07-29T21:25:17.131Z,38.14
2022-07-29T21:28:35.697Z,37.57
2022-07-29T21:31:38.765Z,37.93
2022-07-29T21:34:43.227Z,38.56
2022-07-29T21:37:46.293Z,38.30
2022-07-29T21:40:52.279Z,38.50
2022-07-29T21:43:55.738Z,38.15
2022-07-29T21:47:01.798Z,37.93
2022-07-29T21:50:07.422Z,37.47
2022-07-29T21:53:13.856Z,37.81
2022-07-29T21:56:18.992Z,38.06
2022-07-29T21:59:22.139Z,38.05
2022-07-29T22:02:25.178Z,37.98
2022-07-29T22:05:30.133Z,38.34
2022-07-29T22:08:33.211Z,38.70
2022-07-29T22:11:36.997Z,38.63
2022-07-29T22:14:40.058Z,38.34
2022-07-29T22:17:43.184Z,38.93
2022-07-29T22:20:47.559Z,39.16
2022-07-29T22:23:50.598Z,39.09
2022-07-29T22:26:53.618Z,38.59
2022-07-29T22:29:56.678Z,38.65
2022-07-29T22:32:59.754Z,39.01
2022-07-29T22:36:04.229Z,38.66
2022-07-29T22:39:07.639Z,38.62
2022-07-29T22:42:10.716Z,38.70
2022-07-29T22:45:13.810Z,37.92
2022-07-29T22:48:16.987Z,38.19
2022-07-29T22:51:21.579Z,38.06
2022-07-29T22:54:24.678Z,38.73
2022-07-29T22:57:27.843Z,38.44
2022-07-29T23:00:31.699Z,38.32
2022-07-29T23:03:34.872Z,38.49
2022-07-29T23:06:39.461Z,38.65
2022-07-29T23:09:42.555Z,38.71
2022-07-29T23:12:45.628Z,38.41
2022-07-29T23:15:48.744Z,38.37
2022-07-29T23:18:52.752Z,38.40
2022-07-29T23:21:57.350Z,38.56
2022-07-29T23:25:00.482Z,37.79
2022-07-29T23:28:03.678Z,37.34
2022-07-29T23:31:06.836Z,37.11
2022-07-29T23:34:10.026Z,37.11
2022-07-29T23:37:14.483Z,37.38
2022-07-29T23:40:17.585Z,37.24
2022-07-29T23:43:20.659Z,36.99
2022-07-29T23:46:24.190Z,36.50
2022-07-29T23:49:27.414Z,36.90
2022-07-29T23:52:32.037Z,36.83
2022-07-29T23:55:37.031Z,37.60
2022-07-29T23:58:42.012Z,37.03
